Main page
METAR-TAF:

METAR-TAF

Airports :

Kansas City International Airport

Kansas City, Missouri, United States

latitude: 39-17-50N, longitude: 094-43-50W, elevation: 1023 ft

Current weather observation

The report was made 37 minutes ago, at 21:53 UTC
Wind 10 mph from the North
Temperature 32°F
Humidity 34%
Pressure 30.72 in. Hg
Visibility: 10 miles
Clear sky

METAR: KMCI 202153Z 01009KT 10SM CLR 00/M14 A3072 RMK AO2 SLP413 T00001139

Time: 16:30 (22:30 UTC)

Forecast

The report was made 5 hours and 10 minutes ago, at 17:20 UTC
Forecast valid from 20 at 18 UTC to 21 at 18 UTC
Wind 10 mph from the North
Visibility: 6 miles
Clear sky
From 21 at 0200 UTC
Wind 3 mph from variable directions
Visibility: 6 miles
Clear sky
From 21 at 0800 UTC
Wind 10 mph from the South
Visibility: 6 miles
Clear sky

TAF: KMCI 201720Z 2018/2118 01009KT P6SM SKC FM210200 VRB03KT P6SM SKC FM210800 19009KT P6SM SKC

Weather observations and forecasts of more than 4000 airports (METAR and TAF reports).

The available stations are represented by yellow and red dots on the map.

Hover mouse over dot to see the name of the station.

Then click to see weather observations and forecasts.

To change the map : click on the green buttons with a black cross to zoom in, on the green button with a dash to zoom out, or on the green arrows for adjacent maps.


METAR-TAF: